Tiempo atmosférico en la estación meteorológica de Andorra, Teruel (762 m.)



Fecha
DESCASC
Temp. máxima en grados centígrados (hora)
DESCASC
Temp. mínima en grados centígrados (hora)
DESCASC
Temp. media en grados centígrados
DESCASC
Racha de viento máxima en m/sg (hora)
DESCASC
Velocidad máxima media en intervalos de 10 minutos(hora)
DESCASC
Precipitaciones diarias en mm
DESCASC
Precipitaciones de 00:00 a 06:00 en mm
DESCASC
Precipitaciones de 06:00 a 12:00 en mm
DESCASC
Precipitaciones de 12:00 a 18:00 en mm
DESCASC
Precipitaciones de 18:00 a 24:00 en mm
DESCASC
18-01-2018 14.1 (13:50) 1.2 (07:20) 7.7 10.83 (00:30) 8.61 (00:30) 0 0 0 0 0
17-01-2018 10.4 (12:30) 3.4 (23:40) 6.9 23.06 (13:10) 17.5 (13:10) 0 0 0 0 0
16-01-2018 13.8 (15:00) 5.5 (01:20) 9.7 18.89 (10:40) 15 (11:30) 0 0 0 0 0
15-01-2018 9.5 (15:30) 0.6 (05:00) 5.1 14.72 (23:30) 11.94 (23:10) 0 0 0 0 0
14-01-2018 7.2 (12:40) 2 (00:00) 4.6 16.39 (04:20) 13.06 (04:20) 0 0 0 0 0
13-01-2018 7.1 (11:20) 1.3 (00:00) 4.2 8.61 (21:10) 6.94 (21:10) 1.2 0 0 0 1.2
12-01-2018 9 (14:10) 2.3 (00:00) 5.6 17.22 (10:30) 13.06 (10:30) 0 0 0 0 0
11-01-2018 6.7 (13:10) 2.5 (00:00) 4.6 22.78 (00:30) 18.33 (00:30) 0 0 0 0 0
10-01-2018 10.3 (13:50) 2.8 (00:00) 6.6 24.72 (21:50) 18.33 (22:00) 0.4 0.4 0 0 0
09-01-2018 8 (16:50) 0.6 (00:00) 4.3 8.06 (02:00) 6.94 (09:20) 1.2 0 0 0 1.2
08-01-2018 5.6 (16:50) -1.5 (-00:0) 2 5.56 (08:50) 4.72 (08:50) 0 0 0 0 0
07-01-2018 4.4 (13:30) -0.1 (00:00) 2.2 6.67 (13:50) 5.83 (13:50) 3.8 1 2.6 0.2 0
06-01-2018 9.6 (07:10) 1.7 (00:00) 5.7 8.61 (02:20) 6.67 (15:00) 23.4 0 0 1.2 22.2
05-01-2018 14.6 (15:00) 6.5 (00:00) 10.6 14.17 (02:20) 11.94 (02:20) 0 0 0 0 0
04-01-2018 17.1 (15:10) 10 (21:20) 13.6 23.89 (11:00) 19.17 (10:50) 0 0 0 0 0
03-01-2018 17.3 (14:50) 10.5 (00:00) 13.9 20.28 (16:40) 16.39 (16:40) 0 0 0 0 0
02-01-2018 14.8 (14:50) 8.1 (00:00) 11.5 22.78 (17:40) 17.78 (17:20) 0 0 0 0 0
01-01-2018 12.8 (14:30) 3.4 (00:00) 8.1 24.17 (21:00) 18.89 (15:20) 0 0 0 0 0
31-12-2017 13.1 (16:30) 4.9 (00:00) 9 25 (21:00) 18.61 (21:00) 0 0 0 0 0
30-12-2017 16 (15:00) 9.1 (00:00) 12.6 18.89 (10:50) 14.17 (14:20) 0 0 0 0 0
29-12-2017 13.9 (15:20) 3.9 (00:00) 8.9 20.28 (14:20) 15.83 (09:20) 0.6 0 0.6 0 0
28-12-2017 11.3 (14:40) 3 (00:00) 7.2 20.56 (14:20) 15.83 (14:20) 0.6 0 0 0.6 0
27-12-2017 9.6 (03:30) 3 (00:00) 6.3 30 (05:00) 22.78 (05:00) 0 0 0 0 0
26-12-2017 8.5 (13:00) 4.4 (00:00) 6.5 19.72 (23:59) 15.56 (23:50) 0 0 0 0 0
25-12-2017 7.8 (11:00) 2.6 (00:00) 5.2 6.67 (21:50) 5.83 (22:50) 0 0 0 0 0
24-12-2017 10.4 (13:20) 2.9 (00:00) 6.6 5.28 (06:10) 5 (06:10) 0 0 0 0 0
23-12-2017 10.5 (14:20) 3.8 (00:00) 7.1 8.61 (09:10) 6.39 (09:10) 0 0 0 0 0
22-12-2017 11.9 (15:10) 3.5 (00:00) 7.7 11.39 (13:20) 9.17 (16:10) 0 0 0 0 0
21-12-2017 12.1 (14:50) 1.3 (00:00) 6.7 9.17 (23:10) 8.06 (23:59) 0 0 0 0 0

Gráficas

Temp. máximas Temp. mínimas Temp. medias Precipitaciones Rachas de viento máximas Velocidades máximas media en intervalos de 10 minutos

Datos horarios

Fecha y hora oficial Temperatura (ºC) Velocidad del viento (km/h) Dirección del viento Racha (km/h) Dirección de racha Precipitación (mm) Presión (hPa) Tendencia (hPa) Humedad (%)
2018-01-19 23:00:00 5.3 33 Oeste 58 Oeste 0 -- -- 79
2018-01-19 22:00:00 6.6 33 Oeste 63 Noroeste 0 -- -- 71
2018-01-19 21:00:00 6.5 37 Noroeste 54 Noroeste 0 -- -- 80
2018-01-19 20:00:00 7.2 32 Oeste 49 Noroeste 0 -- -- 79
2018-01-19 19:00:00 7.9 33 Noroeste 45 Noroeste 0 -- -- 79
2018-01-19 18:00:00 9.4 35 Noroeste 46 Noroeste 0 -- -- 74
2018-01-19 17:00:00 10.3 26 Noroeste 50 Noroeste 0 -- -- 69
2018-01-19 16:00:00 11.6 40 Noroeste 59 Noroeste 0 -- -- 63
2018-01-19 15:00:00 12.1 42 Noroeste 60 Noroeste 0 -- -- 60
2018-01-19 14:00:00 11.4 45 Noroeste 63 Noroeste 0 -- -- 61
2018-01-19 13:00:00 10.7 37 Noroeste 50 Noroeste 0 -- -- 65
2018-01-19 12:00:00 9.8 24 Oeste 36 Oeste 0 -- -- 70
2018-01-19 11:00:00 7 23 Oeste 30 Oeste 0 -- -- 80
2018-01-19 10:00:00 5.9 22 Oeste 33 Oeste 0 -- -- 86
2018-01-19 09:00:00 4.4 27 Oeste 33 Oeste 0 -- -- 89
2018-01-19 08:00:00 4.1 28 Oeste 34 Oeste 0 -- -- 90
2018-01-19 07:00:00 3.7 22 Oeste 35 Oeste 0 -- -- 89
2018-01-19 06:00:00 3.9 19 Oeste 28 Oeste 0 -- -- 86
2018-01-19 05:00:00 3.7 25 Oeste 31 Oeste 0 -- -- 82
2018-01-19 04:00:00 5 23 Oeste 28 Oeste 0 -- -- 76
2018-01-19 03:00:00 6 19 Oeste 36 Noroeste 0 -- -- 71
2018-01-19 02:00:00 5.1 22 Oeste 27 Oeste 0 -- -- 68
2018-01-19 01:00:00 6.8 17 Noroeste 25 Noroeste 0 -- -- 62
2018-01-19 00:00:00 6.1 19 Oeste 23 Oeste 0 -- -- 64
2018-01-18 23:00:00 6.7 19 Oeste 24 Oeste 0 -- -- 62
2018-01-18 22:00:00 7.1 22 Oeste 24 Oeste 0 -- -- 61
2018-01-18 21:00:00 8.7 17 Oeste 19 Oeste 0 -- -- 53
2018-01-18 20:00:00 9.4 12 Sudoeste 14 Sudoeste 0 -- -- 53
2018-01-18 19:00:00 9.5 11 Sudoeste 13 Sudoeste 0 -- -- 56
2018-01-18 18:00:00 10.3 4 Este 9 Norte 0 -- -- 53
2018-01-18 17:00:00 12.1 5 Norte 9 Nordeste 0 -- -- 44
2018-01-18 16:00:00 11.2 9 Nordeste 15 Nordeste 0 -- -- 54
2018-01-18 15:00:00 11.6 12 Nordeste 17 Este 0 -- -- 53
2018-01-18 14:00:00 14.1 4 Norte 16 Noroeste 0 -- -- 41
2018-01-18 13:00:00 12.6 11 Oeste 17 Oeste 0 -- -- 38
2018-01-18 12:00:00 10.6 8 Oeste 12 Oeste 0 -- -- 49
2018-01-18 11:00:00 7.2 12 Oeste 19 Oeste 0 -- -- 63
2018-01-18 10:00:00 4.3 16 Oeste 24 Oeste 0 -- -- 73
2018-01-18 09:00:00 2.5 21 Oeste 25 Oeste 0 -- -- 78
2018-01-18 08:00:00 1.8 17 Oeste 18 Oeste 0 -- -- 81
2018-01-18 07:00:00 1.8 11 Sudoeste 14 Oeste 0 -- -- 83
2018-01-18 06:00:00 1.7 11 Oeste 21 Oeste 0 -- -- 87
2018-01-18 05:00:00 1.7 16 Oeste 28 Oeste 0 -- -- 91
2018-01-18 04:00:00 2.1 22 Oeste 28 Oeste 0 -- -- 87
2018-01-18 03:00:00 2.9 18 Oeste 25 Oeste 0 -- -- 86
2018-01-18 02:00:00 2.8 16 Oeste 26 Oeste 0 -- -- 89
2018-01-18 01:00:00 2.8 23 Oeste 39 Oeste 0 -- -- 90
2018-01-18 00:00:00 3.5 24 Oeste 35 Oeste 0 -- -- 86
2018-01-17 23:00:00 3.9 30 Oeste 39 Oeste 0 -- -- 84
2018-01-17 22:00:00 4.3 27 Oeste 37 Oeste 0 -- -- 82
2018-01-17 21:00:00 4.7 20 Sudoeste 31 Oeste 0 -- -- 80
2018-01-17 20:00:00 6.3 30 Oeste 53 Noroeste 0 -- -- 68
2018-01-17 19:00:00 6.7 36 Noroeste 77 Noroeste 0 -- -- 66
2018-01-17 18:00:00 7.7 60 Oeste 81 Noroeste 0 -- -- 61
2018-01-17 17:00:00 8.5 60 Noroeste 76 Noroeste 0 -- -- 59
2018-01-17 16:00:00 8.9 60 Noroeste 76 Noroeste 0 -- -- 58
2018-01-17 15:00:00 8.9 53 Noroeste 73 Noroeste 0 -- -- 66
2018-01-17 14:00:00 9.8 59 Noroeste 83 Noroeste 0 -- -- 57
2018-01-17 13:00:00 10.3 55 Noroeste 74 Noroeste 0 -- -- 58
2018-01-17 12:00:00 9.2 37 Noroeste 58 Noroeste 0 -- -- 66
2018-01-17 11:00:00 8.6 46 Noroeste 63 Noroeste 0 -- -- 74
2018-01-17 10:00:00 8.8 35 Noroeste 47 Noroeste 0 -- -- 77
2018-01-17 09:00:00 8.2 30 Oeste 41 Oeste 0 -- -- 80
2018-01-17 08:00:00 8.1 33 Oeste 46 Oeste 0 -- -- 81
2018-01-17 07:00:00 8.4 39 Oeste 52 Oeste 0 -- -- 80
2018-01-17 06:00:00 8.7 44 Oeste 55 Oeste 0 -- -- 78
2018-01-17 05:00:00 9.1 39 Oeste 55 Oeste 0 -- -- 76
2018-01-17 04:00:00 9 40 Oeste 60 Sudoeste 0 -- -- 75
2018-01-17 03:00:00 9 42 Oeste 54 Sudoeste 0 -- -- 75
2018-01-17 02:00:00 9.2 36 Oeste 58 Oeste 0 -- -- 74
2018-01-17 01:00:00 9.2 35 Oeste 55 Oeste 0 -- -- 74
2018-01-17 00:00:00 9.6 51 Oeste 64 Oeste 0 -- -- 73
2018-01-16 23:00:00 9.1 45 Oeste 62 Oeste 0 -- -- 77
2018-01-16 22:00:00 8.2 31 Oeste 53 Oeste 0 -- -- 81
2018-01-16 21:00:00 8.3 43 Oeste 50 Oeste 0 -- -- 82
2018-01-16 20:00:00 8.7 37 Oeste 49 Oeste 0 -- -- 80
2018-01-16 19:00:00 9.4 33 Oeste 48 Oeste 0 -- -- 78
2018-01-16 18:00:00 9.9 44 Oeste 57 Oeste 0 -- -- 76
2018-01-16 17:00:00 12.3 45 Oeste 54 Oeste 0 -- -- 66
2018-01-16 16:00:00 13 42 Oeste 51 Oeste 0 -- -- 63
2018-01-16 15:00:00 13.8 34 Noroeste 53 Oeste 0 -- -- 59
2018-01-16 14:00:00 13.2 44 Oeste 64 Oeste 0 -- -- 61
2018-01-16 13:00:00 12 54 Oeste 67 Oeste 0 -- -- 63
2018-01-16 12:00:00 11.2 51 Oeste 67 Oeste 0 -- -- 64
2018-01-16 11:00:00 10.1 53 Oeste 68 Oeste 0 -- -- 67
2018-01-16 10:00:00 8.8 30 Oeste 46 Oeste 0 -- -- 67
2018-01-16 09:00:00 7.7 28 Oeste 58 Oeste 0 -- -- 66
2018-01-16 08:00:00 7.8 44 Oeste 61 Oeste 0 -- -- 69
2018-01-16 07:00:00 7 41 Oeste 57 Oeste 0 -- -- 67
2018-01-16 06:00:00 7.1 42 Oeste 62 Sudoeste 0 -- -- 70
2018-01-16 05:00:00 6.1 39 Oeste 60 Sudoeste 0 -- -- 68
2018-01-16 04:00:00 5.6 40 Sudoeste 54 Oeste 0 -- -- 65
2018-01-16 03:00:00 6.3 48 Oeste 58 Oeste 0 -- -- 59
2018-01-16 02:00:00 5.5 44 Sudoeste 55 Sudoeste 0 -- -- 58
2018-01-16 01:00:00 6 45 Oeste 56 Oeste 0 -- -- 58
2018-01-16 00:00:00 5.8 41 Oeste 53 Oeste 0 -- -- 60
2018-01-15 23:00:00 5.9 39 Oeste 48 Oeste 0 -- -- 61
2018-01-15 22:00:00 6.1 39 Oeste 48 Oeste 0 -- -- 62
2018-01-15 21:00:00 6.3 35 Oeste 48 Oeste 0 -- -- 61
2018-01-15 20:00:00 6.6 38 Oeste 49 Oeste 0 -- -- 63
2018-01-15 19:00:00 5.5 27 Sudoeste 30 Sudoeste 0 -- -- 73
2018-01-15 18:00:00 6.6 18 Oeste 23 Oeste 0 -- -- 65
2018-01-15 17:00:00 7.5 9 Norte 27 Oeste 0 -- -- 64
2018-01-15 16:00:00 9.2 17 Oeste 26 Oeste 0 -- -- 56
2018-01-15 15:00:00 9.4 13 Oeste 27 Oeste 0 -- -- 58
2018-01-15 14:00:00 8.2 14 Oeste 28 Oeste 0 -- -- 61
2018-01-15 13:00:00 7 21 Oeste 32 Oeste 0 -- -- 66
2018-01-15 12:00:00 6.2 26 Oeste 31 Oeste 0 -- -- 71
2018-01-15 11:00:00 3.8 11 Oeste 19 Oeste 0 -- -- 81
2018-01-15 10:00:00 2.5 16 Oeste 22 Oeste 0 -- -- 84
2018-01-15 09:00:00 1.5 17 Oeste 21 Sudoeste 0 -- -- 87
2018-01-15 08:00:00 1 19 Oeste 24 Oeste 0 -- -- 91
2018-01-15 07:00:00 0.9 19 Oeste 32 Oeste 0 -- -- 91
2018-01-15 06:00:00 1.4 27 Oeste 36 Oeste 0 -- -- 90
2018-01-15 05:00:00 0.6 22 Oeste 27 Oeste 0 -- -- 92
2018-01-15 04:00:00 1.3 21 Oeste 25 Oeste 0 -- -- 91
2018-01-15 03:00:00 1.2 18 Oeste 23 Oeste 0 -- -- 91
2018-01-15 02:00:00 1.3 19 Oeste 25 Oeste 0 -- -- 92
2018-01-15 01:00:00 1.4 22 Oeste 25 Oeste 0 -- -- 92
2018-01-15 00:00:00 2 19 Oeste 28 Oeste 0 -- -- 90
2018-01-14 23:00:00 2.9 22 Oeste 29 Oeste 0 -- -- 87
2018-01-14 22:00:00 3.2 21 Oeste 26 Oeste 0 -- -- 85
2018-01-14 21:00:00 4 20 Oeste 32 Oeste 0 -- -- 82
2018-01-14 20:00:00 4.6 17 Oeste 30 Noroeste 0 -- -- 77
2018-01-14 19:00:00 4.8 17 Oeste 20 Oeste 0 -- -- 78
2018-01-14 18:00:00 4.8 12 Oeste 20 Noroeste 0 -- -- 82
2018-01-14 17:00:00 5.3 16 Noroeste 26 Noroeste 0 -- -- 81
2018-01-14 16:00:00 5.6 19 Noroeste 32 Noroeste 0 -- -- 79
2018-01-14 15:00:00 6.4 23 Noroeste 31 Noroeste 0 -- -- 74
2018-01-14 14:00:00 6.8 21 Noroeste 41 Oeste 0 -- -- 67
2018-01-14 13:00:00 6.9 34 Oeste 48 Oeste 0 -- -- 67
2018-01-14 12:00:00 6.1 37 Oeste 47 Oeste 0 -- -- 67
2018-01-14 11:00:00 4.3 33 Oeste 44 Oeste 0 -- -- 76
2018-01-14 10:00:00 3.4 26 Oeste 38 Oeste 0 -- -- 80
2018-01-14 09:00:00 2.9 28 Oeste 43 Oeste 0 -- -- 82
2018-01-14 08:00:00 2.7 31 Oeste 48 Oeste 0 -- -- 82
2018-01-14 07:00:00 3.2 41 Oeste 50 Oeste 0 -- -- 80
2018-01-14 06:00:00 3.2 41 Oeste 58 Oeste 0 -- -- 82
2018-01-14 05:00:00 3.3 43 Oeste 59 Oeste 0 -- -- 83
2018-01-14 04:00:00 3.2 43 Oeste 58 Oeste 0 -- -- 85
2018-01-14 03:00:00 3.5 36 Oeste 46 Oeste 0 -- -- 85
2018-01-14 02:00:00 3.6 31 Oeste 45 Sudoeste 0 -- -- 85
2018-01-14 01:00:00 3.5 31 Oeste 37 Oeste 0 -- -- 88
2018-01-14 00:00:00 2.8 12 Sudoeste 13 Sudoeste 0 -- -- 95
2018-01-13 23:00:00 3 10 Oeste 15 Oeste 0.2 -- -- 93
2018-01-13 22:00:00 3.1 9 Oeste 31 Oeste 0.8 -- -- 92
2018-01-13 21:00:00 4 21 Oeste 29 Oeste 0.2 -- -- 87
2018-01-13 20:00:00 4.3 11 Sudoeste 13 Oeste 0 -- -- 83
2018-01-13 19:00:00 4.2 7 Oeste 15 Oeste 0 -- -- 84
2018-01-13 18:00:00 4.5 5 Noroeste 9 Nordeste 0 -- -- 84
2018-01-13 17:00:00 5.6 10 Nordeste 14 Este 0 -- -- 79
2018-01-13 16:00:00 6.1 6 Este 16 Este 0 -- -- 75
2018-01-13 15:00:00 4.9 14 Este 17 Este 0 -- -- 75
2018-01-13 14:00:00 4.5 13 Este 16 Este 0 -- -- 80
2018-01-13 13:00:00 5.2 11 Este 15 Este 0 -- -- 75
2018-01-13 12:00:00 6.3 9 Nordeste 13 Este 0 -- -- 65
2018-01-13 11:00:00 6.8 3 Sudeste 8 Sudeste 0 -- -- 58
2018-01-13 10:00:00 4.7 2 Sudeste 13 Oeste 0 -- -- 61
2018-01-13 09:00:00 1.3 11 Oeste 18 Sur 0 -- -- 74
2018-01-13 08:00:00 3.8 12 Sur 16 Sur 0 -- -- 57
2018-01-13 07:00:00 1.6 9 Sudoeste 16 Sur 0 -- -- 71
2018-01-13 06:00:00 2.3 10 Sur 13 Sur 0 -- -- 67
2018-01-13 05:00:00 1.7 6 Sudoeste 13 Sur 0 -- -- 78
2018-01-13 04:00:00 1.8 10 Sur 14 Oeste 0 -- -- 74
2018-01-13 03:00:00 2.4 11 Oeste 15 Sudoeste 0 -- -- 72
2018-01-13 02:00:00 3.2 13 Sur 14 Sur 0 -- -- 70
2018-01-13 01:00:00 3.2 12 Sur 13 Sur 0 -- -- 71
2018-01-13 00:00:00 3.6 8 Sudoeste 11 Sudoeste 0 -- -- 70
2018-01-12 23:00:00 3.1 9 Sudoeste 15 Sudoeste 0 -- -- 76
2018-01-12 22:00:00 3.7 13 Sudoeste 16 Sudoeste 0 -- -- 75
2018-01-12 21:00:00 4 14 Oeste 19 Oeste 0 -- -- 75
2018-01-12 20:00:00 4 12 Sudoeste 20 Oeste 0 -- -- 75
2018-01-12 19:00:00 4.8 16 Oeste 23 Oeste 0 -- -- 72
2018-01-12 18:00:00 5.5 21 Oeste 36 Oeste 0 -- -- 69
2018-01-12 17:00:00 7.9 25 Oeste 41 Oeste 0 -- -- 62
2018-01-12 16:00:00 8.7 32 Oeste 46 Oeste 0 -- -- 60
2018-01-12 15:00:00 7.8 36 Oeste 48 Oeste 0 -- -- 64
2018-01-12 14:00:00 8.5 35 Oeste 46 Oeste 0 -- -- 65
2018-01-12 13:00:00 7.7 26 Noroeste 47 Oeste 0 -- -- 64
2018-01-12 12:00:00 7.4 32 Noroeste 49 Oeste 0 -- -- 69
2018-01-12 11:00:00 6 36 Oeste 62 Oeste 0 -- -- 74
2018-01-12 10:00:00 5.1 41 Oeste 53 Oeste 0 -- -- 76
2018-01-12 09:00:00 3.9 37 Oeste 52 Oeste 0 -- -- 84
2018-01-12 08:00:00 3.5 32 Oeste 39 Oeste 0 -- -- 84
2018-01-12 07:00:00 3.6 32 Oeste 44 Oeste 0 -- -- 84
2018-01-12 06:00:00 3.8 34 Oeste 43 Oeste 0 -- -- 84
2018-01-12 05:00:00 3 31 Oeste 53 Oeste 0 -- -- 87
2018-01-12 04:00:00 2.8 37 Oeste 48 Oeste 0 -- -- 86
2018-01-12 03:00:00 2.7 35 Oeste 44 Oeste 0 -- -- 86
2018-01-12 02:00:00 2.5 34 Oeste 50 Oeste 0 -- -- 85
2018-01-12 01:00:00 2.8 36 Oeste 54 Oeste 0 -- -- 84
2018-01-12 00:00:00 2.9 42 Oeste 54 Oeste 0 -- -- 82
2018-01-11 23:00:00 3.4 45 Oeste 61 Oeste 0 -- -- 80
2018-01-11 22:00:00 3 53 Oeste 63 Oeste 0 -- -- 84
2018-01-11 21:00:00 3.6 50 Oeste 64 Oeste 0 -- -- 79
2018-01-11 20:00:00 4.7 23 Oeste 44 Oeste 0 -- -- 69
2018-01-11 19:00:00 4.9 29 Oeste 43 Oeste 0 -- -- 70
2018-01-11 18:00:00 5.1 27 Noroeste 43 Oeste 0 -- -- 65
2018-01-11 17:00:00 6 33 Noroeste 48 Oeste 0 -- -- 60
2018-01-11 16:00:00 6.4 33 Oeste 59 Noroeste 0 -- -- 58
2018-01-11 15:00:00 6.3 39 Oeste 56 Noroeste 0 -- -- 60
2018-01-11 14:00:00 6.3 44 Oeste 55 Oeste 0 -- -- 60
2018-01-11 13:00:00 6.5 42 Oeste 63 Oeste 0 -- -- 60
2018-01-11 12:00:00 5.6 40 Oeste 68 Oeste 0 -- -- 64
2018-01-11 11:00:00 4.8 54 Oeste 72 Oeste 0 -- -- 68
2018-01-11 10:00:00 4.3 49 Oeste 71 Oeste 0 -- -- 71
2018-01-11 09:00:00 3.5 52 Oeste 64 Oeste 0 -- -- 72
2018-01-11 08:00:00 3 39 Oeste 67 Oeste 0 -- -- 74
2018-01-11 07:00:00 3.1 54 Oeste 72 Oeste 0 -- -- 70
2018-01-11 06:00:00 3 60 Oeste 73 Oeste 0 -- -- 70
2018-01-11 05:00:00 2.6 55 Oeste 67 Oeste 0 -- -- 72
2018-01-11 04:00:00 2.6 54 Oeste 74 Oeste 0 -- -- 72
2018-01-11 03:00:00 3 54 Oeste 68 Oeste 0 -- -- 72
2018-01-11 02:00:00 3.2 45 Oeste 75 Oeste 0 -- -- 73
2018-01-11 01:00:00 3.8 58 Oeste 82 Oeste 0 -- -- 70
2018-01-11 00:00:00 4.7 60 Oeste 82 Oeste 0 -- -- 69
2018-01-10 23:00:00 5.4 58 Oeste 82 Oeste 0 -- -- 68
2018-01-10 22:00:00 6.1 66 Oeste 89 Oeste 0 -- -- 67
2018-01-10 21:00:00 6.8 50 Oeste 73 Oeste 0 -- -- 69
2018-01-10 20:00:00 6.4 41 Oeste 49 Oeste 0 -- -- 70
2018-01-10 19:00:00 6.9 27 Oeste 50 Oeste 0 -- -- 69
2018-01-10 18:00:00 7.2 37 Oeste 62 Oeste 0 -- -- 68
2018-01-10 17:00:00 7.5 33 Oeste 62 Sudoeste 0 -- -- 65
2018-01-10 16:00:00 8 40 Oeste 65 Oeste 0 -- -- 63
2018-01-10 15:00:00 9 33 Oeste 54 Oeste 0 -- -- 65
2018-01-10 14:00:00 10.1 34 Oeste 49 Oeste 0 -- -- 61
2018-01-10 13:00:00 9.6 21 Noroeste 41 Oeste 0 -- -- 66
2018-01-10 12:00:00 8.3 32 Oeste 43 Oeste 0 -- -- 68
2018-01-10 11:00:00 6.7 34 Sudoeste 46 Sudoeste 0 -- -- 75
2018-01-10 10:00:00 5.1 24 Oeste 34 Oeste 0 -- -- 83
2018-01-10 09:00:00 4.9 26 Oeste 37 Oeste 0 -- -- 83
2018-01-10 08:00:00 3.9 22 Oeste 27 Oeste 0 -- -- 85
2018-01-10 07:00:00 3.2 15 Oeste 19 Oeste 0 -- -- 87
2018-01-10 06:00:00 3.5 10 Oeste 11 Oeste 0 -- -- 84
2018-01-10 05:00:00 4 4 Sudoeste 6 Sudoeste 0 -- -- 79
2018-01-10 04:00:00 3.4 6 Sudoeste 8 Sudoeste 0 -- -- 82
2018-01-10 03:00:00 3.4 4 Sur 11 Sur 0 -- -- 81
2018-01-10 02:00:00 3 6 Sur 12 Sur 0 -- -- 84
2018-01-10 01:00:00 2.9 10 Sur 13 Sur 0.4 -- -- 86
2018-01-10 00:00:00 3.8 3 Sudeste 12 Sudeste 0.2 -- -- 76
2018-01-09 23:00:00 3.3 8 Este 13 Este 0 -- -- 80
2018-01-09 22:00:00 3.7 5 Sur 8 Sur 0 -- -- 78
2018-01-09 21:00:00 3.7 4 Este 9 Este 0.4 -- -- 78
2018-01-09 20:00:00 4.3 6 Sudoeste 20 Oeste 0.6 -- -- 72
2018-01-09 19:00:00 4.4 9 Sudoeste 14 Oeste 0 -- -- 65
2018-01-09 18:00:00 5.3 6 Oeste 26 Sudoeste 0 -- -- 58
2018-01-09 17:00:00 7.5 15 Sudoeste 23 Sudoeste 0 -- -- 50
2018-01-09 16:00:00 6.7 5 Este 10 Este 0 -- -- 68
2018-01-09 15:00:00 6.6 3 Este 10 Este 0 -- -- 66
2018-01-09 14:00:00 7.3 7 Este 11 Este 0 -- -- 63
2018-01-09 13:00:00 6.7 5 Noroeste 11 Oeste 0 -- -- 61
2018-01-09 12:00:00 6 8 Noroeste 12 Noroeste 0 -- -- 61
2018-01-09 11:00:00 4.3 6 Oeste 25 Oeste 0 -- -- 68
2018-01-09 10:00:00 2.8 20 Oeste 28 Oeste 0 -- -- 73
2018-01-09 09:00:00 1.9 21 Oeste 27 Oeste 0 -- -- 74
2018-01-09 08:00:00 1.1 17 Oeste 22 Oeste 0 -- -- 77
2018-01-09 07:00:00 1.1 17 Sudoeste 22 Sudoeste 0 -- -- 77
2018-01-09 06:00:00 1.1 13 Oeste 21 Oeste 0 -- -- 75
2018-01-09 05:00:00 1.7 15 Oeste 21 Sudoeste 0 -- -- 72
2018-01-09 04:00:00 1.4 15 Oeste 18 Oeste 0 -- -- 73
2018-01-09 03:00:00 2 10 Oeste 24 Oeste 0 -- -- 70
2018-01-09 02:00:00 1.4 21 Oeste 29 Oeste 0 -- -- 74
2018-01-09 01:00:00 1.5 18 Oeste 25 Oeste 0 -- -- 76
2018-01-09 00:00:00 1.4 13 Sudoeste 17 Sudoeste 0 -- -- 79
2018-01-08 23:00:00 1.4 12 Oeste 17 Oeste 0 -- -- 83
2018-01-08 22:00:00 1.6 7 Oeste 15 Oeste 0 -- -- 82
2018-01-08 21:00:00 2.2 14 Oeste 15 Oeste 0 -- -- 79
2018-01-08 20:00:00 2.9 10 Oeste 17 Sudoeste 0 -- -- 77
2018-01-08 19:00:00 2.9 13 Sudoeste 16 Oeste 0 -- -- 77
2018-01-08 18:00:00 3.8 13 Oeste 18 Oeste 0 -- -- 76
2018-01-08 17:00:00 5.5 8 Oeste 13 Oeste 0 -- -- 77
2018-01-08 16:00:00 4.4 3 Norte 10 Este 0 -- -- 87
2018-01-08 15:00:00 4.6 4 Este 10 Oeste 0 -- -- 83
2018-01-08 14:00:00 3.9 0 Calma 8 Este 0 -- -- 87
2018-01-08 13:00:00 3.5 3 Este 11 Oeste 0 -- -- 86
2018-01-08 12:00:00 2.8 7 Oeste 9 Oeste 0 -- -- 86
2018-01-08 11:00:00 1.8 5 Este 11 Oeste 0 -- -- 91
2018-01-08 10:00:00 -0.2 8 Oeste 20 Oeste 0 -- -- 92
2018-01-08 09:00:00 -1 15 Oeste 20 Oeste 0 -- -- 98
2018-01-08 08:00:00 -1 13 Oeste 15 Sudoeste 0 -- -- 97
2018-01-08 07:00:00 -0.7 9 Oeste 13 Oeste 0 -- -- 97
2018-01-08 06:00:00 -0.1 8 Noroeste 12 Oeste 0 -- -- 97
2018-01-08 05:00:00 0.1 3 Oeste 14 Oeste 0 -- -- 97
2018-01-08 04:00:00 0.3 10 Oeste 12 Oeste 0 -- -- 96
2018-01-08 03:00:00 1.1 11 Sudoeste 16 Sur 0 -- -- 98
2018-01-08 02:00:00 1 13 Sudoeste 16 Sudoeste 0 -- -- 98
2018-01-08 01:00:00 1.8 4 Nordeste 6 Nordeste 0 -- -- 98
2018-01-08 00:00:00 1.2 6 Oeste 13 Noroeste 0 -- -- 98
2018-01-07 23:00:00 1.1 10 Oeste 18 Oeste 0 -- -- 97
2018-01-07 22:00:00 1.6 15 Oeste 20 Oeste 0 -- -- 97
2018-01-07 21:00:00 1.5 17 Oeste 19 Oeste 0 -- -- 97
2018-01-07 20:00:00 1.9 14 Oeste 20 Oeste 0 -- -- 96
2018-01-07 19:00:00 2.5 16 Sudoeste 18 Sudoeste 0 -- -- 96
2018-01-07 18:00:00 2.9 8 Sudoeste 10 Oeste 0 -- -- 96
2018-01-07 17:00:00 3.4 6 Noroeste 15 Nordeste 0 -- -- 97
2018-01-07 16:00:00 3.1 14 Nordeste 24 Nordeste 0 -- -- 97
2018-01-07 15:00:00 3.3 16 Nordeste 24 Este 0 -- -- 98
2018-01-07 14:00:00 4.3 19 Este 24 Este 0 -- -- 98
2018-01-07 13:00:00 3.8 13 Este 19 Este 0.2 -- -- 98
2018-01-07 12:00:00 2.9 9 Este 13 Este 1 -- -- 99
2018-01-07 11:00:00 2.3 4 Este 9 Este 1.2 -- -- 99
2018-01-07 10:00:00 1 4 Sudoeste 8 Sudoeste 0.2 -- -- 99
2018-01-07 09:00:00 0.4 3 Oeste 8 Oeste 0.2 -- -- 99
2018-01-07 08:00:00 0.2 4 Oeste 8 Oeste 0 -- -- 99
2018-01-07 07:00:00 0 8 Oeste 14 Oeste 0 -- -- 99
2018-01-07 06:00:00 0 12 Oeste 18 Oeste 0 -- -- 99
2018-01-07 05:00:00 0 14 Oeste 18 Oeste 0 -- -- 99
2018-01-07 04:00:00 0 10 Oeste 13 Oeste 0 -- -- 99
2018-01-07 03:00:00 0.3 3 Oeste 15 Noroeste 0.2 -- -- 99
2018-01-07 02:00:00 1 14 Oeste 23 Oeste 0.8 -- -- 99
2018-01-07 01:00:00 1.3 9 Noroeste 19 Oeste 0 -- -- 98
2018-01-07 00:00:00 1.7 9 Oeste 18 Oeste 0 -- -- 98
2018-01-06 23:00:00 1.9 14 Oeste 19 Oeste 2.4 -- -- 98
2018-01-06 22:00:00 3.7 4 Sudoeste 26 Sudoeste 3.8 -- -- 98
2018-01-06 21:00:00 3.7 13 Oeste 23 Oeste 3.6 -- -- 98
2018-01-06 20:00:00 3.5 16 Oeste 23 Oeste 6 -- -- 97
2018-01-06 19:00:00 3.6 9 Noroeste 17 Noroeste 6.4 -- -- 96
2018-01-06 18:00:00 3.9 7 Noroeste 19 Noroeste 1.2 -- -- 93
2018-01-06 17:00:00 4.7 11 Norte 23 Nordeste 0 -- -- 87
2018-01-06 16:00:00 5.3 19 Nordeste 30 Este 0 -- -- 83
2018-01-06 15:00:00 6.2 24 Este 28 Nordeste 0 -- -- 79
2018-01-06 14:00:00 6.1 23 Este 28 Este 0 -- -- 80
2018-01-06 13:00:00 5.6 18 Este 24 Este 0 -- -- 82
2018-01-06 12:00:00 5.8 14 Este 21 Este 0 -- -- 82
2018-01-06 11:00:00 4.5 6 Este 18 Nordeste 0 -- -- 89
2018-01-06 10:00:00 4.5 10 Nordeste 18 Norte 0 -- -- 90
2018-01-06 09:00:00 4.4 8 Norte 25 Norte 0 -- -- 88
2018-01-06 08:00:00 5.1 17 Norte 27 Norte 0 -- -- 85
2018-01-06 07:00:00 9.4 9 Sudeste 22 Sudeste 0 -- -- 62
2018-01-06 06:00:00 9.3 9 Sur 26 Sur 0 -- -- 65
2018-01-06 05:00:00 7.6 15 Sudoeste 23 Sudoeste 0 -- -- 69
2018-01-06 04:00:00 7.4 12 Sur 22 Sur 0 -- -- 69
2018-01-06 03:00:00 9.2 14 Sudeste 31 Sudoeste 0 -- -- 61
2018-01-06 02:00:00 7.5 16 Sudoeste 23 Sur 0 -- -- 68
2018-01-06 01:00:00 6.1 14 Sudoeste 18 Sudoeste 0 -- -- 72
2018-01-06 00:00:00 7.6 16 Sudoeste 20 Oeste 0 -- -- 67
2018-01-05 23:00:00 7.4 14 Sudoeste 19 Sur 0 -- -- 66
2018-01-05 22:00:00 8.2 14 Sur 19 Oeste 0 -- -- 64
2018-01-05 21:00:00 8.7 17 Oeste 27 Oeste 0 -- -- 63
2018-01-05 20:00:00 8.8 14 Sudoeste 33 Sudoeste 0 -- -- 62
2018-01-05 19:00:00 10.2 26 Oeste 36 Sudoeste 0 -- -- 57
2018-01-05 18:00:00 11.6 28 Oeste 36 Oeste 0 -- -- 52
2018-01-05 17:00:00 13.8 25 Oeste 45 Oeste 0 -- -- 45
2018-01-05 16:00:00 13.9 39 Oeste 51 Oeste 0 -- -- 44
2018-01-05 15:00:00 14.6 35 Oeste 46 Oeste 0 -- -- 43
2018-01-05 14:00:00 13.9 24 Oeste 39 Oeste 0 -- -- 46
2018-01-05 13:00:00 13.9 23 Noroeste 34 Noroeste 0 -- -- 48
2018-01-05 12:00:00 12.2 23 Sudoeste 33 Sudoeste 0 -- -- 54
2018-01-05 11:00:00 11 24 Sudoeste 35 Sudoeste 0 -- -- 58
2018-01-05 10:00:00 8.9 19 Sudoeste 31 Oeste 0 -- -- 67
2018-01-05 09:00:00 7 15 Oeste 31 Oeste 0 -- -- 74
2018-01-05 08:00:00 7.2 15 Oeste 25 Oeste 0 -- -- 77
2018-01-05 07:00:00 6.5 21 Sudoeste 37 Sudoeste 0 -- -- 79
2018-01-05 06:00:00 7.1 23 Sudoeste 33 Oeste 0 -- -- 79
2018-01-05 05:00:00 8.2 27 Sudoeste 33 Sudoeste 0 -- -- 75
2018-01-05 04:00:00 8.8 26 Sudoeste 42 Sudoeste 0 -- -- 73
2018-01-05 03:00:00 9.4 34 Oeste 51 Oeste 0 -- -- 71
2018-01-05 02:00:00 9.7 29 Oeste 40 Oeste 0 -- -- 71
2018-01-05 01:00:00 10.2 27 Sudoeste 48 Sudoeste 0 -- -- 69
2018-01-05 00:00:00 10.7 40 Sudoeste 49 Sudoeste 0 -- -- 69
2018-01-04 23:00:00 10.9 35 Oeste 50 Oeste 0 -- -- 67
2018-01-04 22:00:00 10.7 38 Oeste 52 Oeste 0 -- -- 67
2018-01-04 21:00:00 10.5 28 Oeste 49 Oeste 0 -- -- 67
2018-01-04 20:00:00 10.8 37 Oeste 53 Oeste 0 -- -- 67
2018-01-04 19:00:00 11.5 39 Oeste 55 Oeste 0 -- -- 64
2018-01-04 18:00:00 12.4 41 Oeste 62 Oeste 0 -- -- 61
2018-01-04 17:00:00 14.2 52 Oeste 66 Oeste 0 -- -- 55
2018-01-04 16:00:00 16.4 36 Oeste 47 Oeste 0 -- -- 47
2018-01-04 15:00:00 17 29 Oeste 42 Oeste 0 -- -- 48
2018-01-04 14:00:00 16 35 Oeste 64 Oeste 0 -- -- 50
2018-01-04 13:00:00 14.9 54 Oeste 79 Oeste 0 -- -- 54
2018-01-04 12:00:00 14.4 62 Oeste 86 Oeste 0 -- -- 56
2018-01-04 11:00:00 13.4 68 Oeste 86 Oeste 0 -- -- 61
2018-01-04 10:00:00 12.1 59 Oeste 77 Oeste 0 -- -- 70
2018-01-04 09:00:00 11.1 48 Oeste 60 Oeste 0 -- -- 76
2018-01-04 08:00:00 11 42 Oeste 64 Oeste 0 -- -- 76
2018-01-04 07:00:00 11.4 41 Oeste 61 Oeste 0 -- -- 75
2018-01-04 06:00:00 11.8 43 Oeste 53 Oeste 0 -- -- 74
2018-01-04 05:00:00 11.7 35 Oeste 54 Oeste 0 -- -- 75
2018-01-04 04:00:00 12 45 Oeste 57 Oeste 0 -- -- 76
2018-01-04 03:00:00 12.2 39 Oeste 54 Oeste 0 -- -- 76
2018-01-04 02:00:00 12.2 36 Oeste 57 Oeste 0 -- -- 76
2018-01-04 01:00:00 12.4 44 Oeste 57 Oeste 0 -- -- 76
2018-01-04 00:00:00 12.6 45 Oeste 58 Oeste 0 -- -- 75
2018-01-03 23:00:00 12.4 35 Oeste 55 Oeste 0 -- -- 74
2018-01-03 22:00:00 12.2 36 Sudoeste 47 Sudoeste 0 -- -- 75
2018-01-03 21:00:00 12.9 37 Oeste 53 Oeste 0 -- -- 72
2018-01-03 20:00:00 13.1 36 Oeste 52 Oeste 0 -- -- 71
2018-01-03 19:00:00 13.1 33 Oeste 61 Oeste 0 -- -- 71
2018-01-03 18:00:00 13.6 52 Oeste 69 Oeste 0 -- -- 70
2018-01-03 17:00:00 14.5 49 Oeste 73 Oeste 0 -- -- 66
2018-01-03 16:00:00 15.9 50 Oeste 71 Oeste 0 -- -- 60
2018-01-03 15:00:00 17.2 49 Oeste 63 Oeste 0 -- -- 56
2018-01-03 14:00:00 16.6 49 Oeste 63 Oeste 0 -- -- 58
2018-01-03 13:00:00 16.1 45 Oeste 59 Oeste 0 -- -- 61
2018-01-03 12:00:00 15.2 46 Oeste 58 Oeste 0 -- -- 63
2018-01-03 11:00:00 14.2 44 Oeste 55 Oeste 0 -- -- 65
2018-01-03 10:00:00 12.5 42 Oeste 58 Oeste 0 -- -- 72
2018-01-03 09:00:00 11.8 51 Oeste 62 Oeste 0 -- -- 74
2018-01-03 08:00:00 10.6 44 Oeste 66 Oeste 0 -- -- 79
2018-01-03 07:00:00 11.1 53 Oeste 68 Oeste 0 -- -- 77
2018-01-03 06:00:00 10.8 42 Oeste 57 Oeste 0 -- -- 78
2018-01-03 05:00:00 11 48 Oeste 62 Oeste 0 -- -- 78
2018-01-03 04:00:00 10.9 40 Oeste 56 Oeste 0 -- -- 77
2018-01-03 03:00:00 11.4 44 Oeste 62 Oeste 0 -- -- 75
2018-01-03 02:00:00 11.1 52 Oeste 61 Oeste 0 -- -- 75
2018-01-03 01:00:00 10.8 45 Oeste 58 Oeste 0 -- -- 76
2018-01-03 00:00:00 11 49 Oeste 60 Oeste 0 -- -- 73
2018-01-02 23:00:00 11.1 48 Oeste 62 Oeste 0 -- -- 71
2018-01-02 22:00:00 11.1 45 Oeste 72 Oeste 0 -- -- 70
2018-01-02 21:00:00 11.4 55 Oeste 69 Oeste 0 -- -- 69
2018-01-02 20:00:00 11.2 49 Oeste 67 Oeste 0 -- -- 69
2018-01-02 19:00:00 11.5 49 Oeste 66 Oeste 0 -- -- 67
2018-01-02 18:00:00 12.1 57 Oeste 82 Oeste 0 -- -- 65
2018-01-02 17:00:00 13.1 60 Oeste 77 Oeste 0 -- -- 61
2018-01-02 16:00:00 14.2 53 Oeste 77 Oeste 0 -- -- 57
2018-01-02 15:00:00 14.8 59 Oeste 75 Oeste 0 -- -- 53
2018-01-02 14:00:00 14.3 59 Oeste 75 Oeste 0 -- -- 53
2018-01-02 13:00:00 13.3 49 Oeste 72 Oeste 0 -- -- 54
2018-01-02 12:00:00 12.7 58 Oeste 70 Oeste 0 -- -- 55
2018-01-02 11:00:00 10.8 51 Oeste 68 Oeste 0 -- -- 61
2018-01-02 10:00:00 9.4 47 Oeste 64 Oeste 0 -- -- 64
2018-01-02 09:00:00 8.4 54 Oeste 68 Oeste 0 -- -- 67
2018-01-02 08:00:00 8.3 50 Oeste 66 Oeste 0 -- -- 69
2018-01-02 07:00:00 8.1 44 Oeste 73 Oeste 0 -- -- 71
2018-01-02 06:00:00 8.8 52 Oeste 67 Oeste 0 -- -- 72
2018-01-02 05:00:00 9.3 35 Oeste 53 Oeste 0 -- -- 72
2018-01-02 04:00:00 9.5 36 Oeste 49 Noroeste 0 -- -- 71
2018-01-02 03:00:00 9.3 33 Oeste 45 Oeste 0 -- -- 72
2018-01-02 02:00:00 9.2 37 Oeste 58 Oeste 0 -- -- 70
2018-01-02 01:00:00 9.1 39 Oeste 60 Oeste 0 -- -- 69
2018-01-02 00:00:00 9.2 53 Oeste 71 Oeste 0 -- -- 68
2018-01-01 23:00:00 9.4 56 Oeste 71 Oeste 0 -- -- 66
2018-01-01 22:00:00 9.4 56 Oeste 72 Oeste 0 -- -- 64
2018-01-01 21:00:00 9.6 67 Oeste 87 Oeste 0 -- -- 60
2018-01-01 20:00:00 9.3 62 Oeste 78 Oeste 0 -- -- 57
2018-01-01 19:00:00 9.7 62 Oeste 78 Oeste 0 -- -- 53
2018-01-01 18:00:00 10.2 60 Oeste 86 Oeste 0 -- -- 50
2018-01-01 17:00:00 10.6 64 Oeste 85 Oeste 0 -- -- 46
2018-01-01 16:00:00 11.6 45 Oeste 86 Oeste 0 -- -- 38
2018-01-01 15:00:00 12.6 48 Oeste 68 Oeste 0 -- -- 30
2018-01-01 14:00:00 12.5 48 Oeste 63 Oeste 0 -- -- 27
2018-01-01 13:00:00 11.7 55 Oeste 78 Oeste 0 -- -- 28
2018-01-01 12:00:00 10.2 59 Oeste 80 Oeste 0 -- -- 33
2018-01-01 11:00:00 8 42 Oeste 59 Sudoeste 0 -- -- 42
2018-01-01 10:00:00 5.8 45 Sudoeste 60 Sudoeste 0 -- -- 53
2018-01-01 09:00:00 3.9 37 Sudoeste 49 Sudoeste 0 -- -- 62
2018-01-01 08:00:00 4.3 34 Sudoeste 48 Oeste 0 -- -- 61
2018-01-01 07:00:00 3.9 46 Oeste 71 Oeste 0 -- -- 65
2018-01-01 06:00:00 4.1 54 Oeste 77 Oeste 0 -- -- 65
2018-01-01 05:00:00 4.1 62 Oeste 78 Oeste 0 -- -- 66
2018-01-01 04:00:00 4 56 Oeste 75 Oeste 0 -- -- 65
2018-01-01 03:00:00 4.1 58 Oeste 82 Oeste 0 -- -- 64
2018-01-01 02:00:00 4.3 57 Oeste 72 Oeste 0 -- -- 63
2018-01-01 01:00:00 4.8 45 Oeste 63 Oeste 0 -- -- 72
2018-01-01 00:00:00 4.9 18 Oeste 30 Oeste 0 -- -- 81
2017-12-31 23:00:00 5.6 29 Oeste 57 Noroeste 0 -- -- 81
2017-12-31 22:00:00 7.6 41 Oeste 84 Oeste 0 -- -- 77
2017-12-31 21:00:00 8.6 67 Oeste 90 Oeste 0 -- -- 66
2017-12-31 20:00:00 10.6 45 Oeste 63 Oeste 0 -- -- 63
2017-12-31 19:00:00 10.5 40 Oeste 53 Oeste 0 -- -- 60
2017-12-31 18:00:00 10.6 14 Oeste 62 Oeste 0 -- -- 58
2017-12-31 17:00:00 11.8 41 Oeste 59 Oeste 0 -- -- 55
2017-12-31 16:00:00 11.9 15 Noroeste 22 Noroeste 0 -- -- 56
2017-12-31 15:00:00 11 7 Este 24 Oeste 0 -- -- 64
2017-12-31 14:00:00 11.6 19 Oeste 27 Oeste 0 -- -- 51
2017-12-31 13:00:00 11.7 8 Sudoeste 16 Sur 0 -- -- 61
2017-12-31 12:00:00 9.2 8 Sudoeste 15 Oeste 0 -- -- 72
2017-12-31 11:00:00 7.2 9 Oeste 14 Oeste 0 -- -- 75
2017-12-31 10:00:00 6.2 9 Oeste 12 Oeste 0 -- -- 77
2017-12-31 09:00:00 8.5 13 Este 19 Sudeste 0 -- -- 73
2017-12-31 08:00:00 7.8 10 Sudeste 21 Este 0 -- -- 63
2017-12-31 07:00:00 7.2 10 Sur 13 Sur 0 -- -- 68
2017-12-31 06:00:00 7.7 5 Sudeste 8 Sudeste 0 -- -- 70
2017-12-31 05:00:00 7.2 2 Norte 11 Este 0 -- -- 71
2017-12-31 04:00:00 7.8 6 Sudeste 18 Sudeste 0 -- -- 67
2017-12-31 03:00:00 9 7 Sudeste 23 Sudoeste 0 -- -- 66
2017-12-31 02:00:00 8.3 22 Oeste 26 Oeste 0 -- -- 72
2017-12-31 01:00:00 8.3 18 Oeste 26 Oeste 0 -- -- 74